Terminal Aerodrome Forecast
Issued by NWS

Home | Current Version | Previous Version | Text Only | Print | Product List | Glossary On
Versions: 1 2 3 4 5 6 7 8 9 10 11 12
816
FTUS45 KRIW 011125
TAFWRL
TAF
KWRL 011125Z 0112/0212 VRB05KT P6SM SKC
     FM012000 17007KT P6SM SCT100
     FM020100 26006KT P6SM VCSH SCT070 BKN090
     FM020500 VRB05KT P6SM BKN100=

USA.gov is the U.S. government's official web portal to all federal, state and local government web resources and services.